sensor_id;sensor_type;location;lat;lon;timestamp;temperature;humidity
4107;DHT22;21906;50.812;7.132;2023-05-10T00:00:39;15.20;83.50
4107;DHT22;21906;50.812;7.132;2023-05-10T00:03:04;15.10;83.50
4107;DHT22;21906;50.812;7.132;2023-05-10T00:05:31;15.10;83.50
4107;DHT22;21906;50.812;7.132;2023-05-10T00:07:56;15.10;83.60
4107;DHT22;21906;50.812;7.132;2023-05-10T00:10:22;15.10;83.70
4107;DHT22;21906;50.812;7.132;2023-05-10T00:12:48;15.10;83.60
4107;DHT22;21906;50.812;7.132;2023-05-10T00:15:14;15.10;83.70
4107;DHT22;21906;50.812;7.132;2023-05-10T00:17:39;15.10;83.60
4107;DHT22;21906;50.812;7.132;2023-05-10T00:20:06;15.10;83.40
4107;DHT22;21906;50.812;7.132;2023-05-10T00:22:32;15.10;83.30
4107;DHT22;21906;50.812;7.132;2023-05-10T00:24:58;15.10;83.40
4107;DHT22;21906;50.812;7.132;2023-05-10T00:27:24;15.00;83.50
4107;DHT22;21906;50.812;7.132;2023-05-10T00:29:49;15.00;83.50
4107;DHT22;21906;50.812;7.132;2023-05-10T00:32:15;15.10;83.50
4107;DHT22;21906;50.812;7.132;2023-05-10T00:34:41;15.20;83.40
4107;DHT22;21906;50.812;7.132;2023-05-10T00:37:07;15.20;83.40
4107;DHT22;21906;50.812;7.132;2023-05-10T00:39:32;15.10;83.60
4107;DHT22;21906;50.812;7.132;2023-05-10T00:41:58;15.20;83.60
4107;DHT22;21906;50.812;7.132;2023-05-10T00:44:25;15.20;83.40
4107;DHT22;21906;50.812;7.132;2023-05-10T00:46:50;15.20;83.30
4107;DHT22;21906;50.812;7.132;2023-05-10T00:49:16;15.20;83.40
4107;DHT22;21906;50.812;7.132;2023-05-10T00:51:42;15.20;83.50
4107;DHT22;21906;50.812;7.132;2023-05-10T00:54:12;15.20;83.50
4107;DHT22;21906;50.812;7.132;2023-05-10T00:56:39;15.20;83.60
4107;DHT22;21906;50.812;7.132;2023-05-10T00:59:05;15.20;83.50
4107;DHT22;21906;50.812;7.132;2023-05-10T01:01:32;15.20;83.60
4107;DHT22;21906;50.812;7.132;2023-05-10T01:03:58;15.20;83.40
4107;DHT22;21906;50.812;7.132;2023-05-10T01:06:24;15.20;83.60
4107;DHT22;21906;50.812;7.132;2023-05-10T01:08:49;15.10;83.60
4107;DHT22;21906;50.812;7.132;2023-05-10T01:11:15;15.20;83.40
4107;DHT22;21906;50.812;7.132;2023-05-10T01:13:43;15.20;83.40
4107;DHT22;21906;50.812;7.132;2023-05-10T01:16:13;15.20;83.60
4107;DHT22;21906;50.812;7.132;2023-05-10T01:18:40;15.20;83.80
4107;DHT22;21906;50.812;7.132;2023-05-10T01:38:18;15.30;83.20
4107;DHT22;21906;50.812;7.132;2023-05-10T01:44:12;15.20;83.40
4107;DHT22;21906;50.812;7.132;2023-05-10T01:46:41;15.10;83.60
4107;DHT22;21906;50.812;7.132;2023-05-10T01:49:10;15.10;83.90
4107;DHT22;21906;50.812;7.132;2023-05-10T01:51:44;15.10;84.00
4107;DHT22;21906;50.812;7.132;2023-05-10T01:54:12;15.10;83.70
4107;DHT22;21906;50.812;7.132;2023-05-10T01:56:39;15.10;83.80
4107;DHT22;21906;50.812;7.132;2023-05-10T01:59:11;15.20;83.90
4107;DHT22;21906;50.812;7.132;2023-05-10T02:01:39;15.20;84.10
4107;DHT22;21906;50.812;7.132;2023-05-10T02:04:07;15.20;83.80
4107;DHT22;21906;50.812;7.132;2023-05-10T02:06:35;15.20;83.80
4107;DHT22;21906;50.812;7.132;2023-05-10T02:09:01;15.30;83.60
4107;DHT22;21906;50.812;7.132;2023-05-10T02:11:29;15.30;83.40
4107;DHT22;21906;50.812;7.132;2023-05-10T02:13:57;15.30;83.40
4107;DHT22;21906;50.812;7.132;2023-05-10T02:16:25;15.30;83.50
4107;DHT22;21906;50.812;7.132;2023-05-10T02:18:52;15.30;83.20
4107;DHT22;21906;50.812;7.132;2023-05-10T02:21:19;15.30;83.10
4107;DHT22;21906;50.812;7.132;2023-05-10T02:23:46;15.30;82.70
4107;DHT22;21906;50.812;7.132;2023-05-10T02:26:14;15.30;82.90
4107;DHT22;21906;50.812;7.132;2023-05-10T02:28:42;15.20;83.00
4107;DHT22;21906;50.812;7.132;2023-05-10T02:31:09;15.00;83.60
4107;DHT22;21906;50.812;7.132;2023-05-10T02:33:38;15.00;83.80
4107;DHT22;21906;50.812;7.132;2023-05-10T02:36:07;15.10;83.80
4107;DHT22;21906;50.812;7.132;2023-05-10T02:38:34;15.00;83.70
4107;DHT22;21906;50.812;7.132;2023-05-10T02:41:02;15.00;83.50
4107;DHT22;21906;50.812;7.132;2023-05-10T02:43:30;14.90;83.50
4107;DHT22;21906;50.812;7.132;2023-05-10T02:45:57;15.00;83.50
4107;DHT22;21906;50.812;7.132;2023-05-10T02:48:23;15.00;83.60
4107;DHT22;21906;50.812;7.132;2023-05-10T02:50:50;15.00;83.70
4107;DHT22;21906;50.812;7.132;2023-05-10T02:53:23;15.00;83.50
4107;DHT22;21906;50.812;7.132;2023-05-10T02:55:52;15.00;83.50
4107;DHT22;21906;50.812;7.132;2023-05-10T02:58:19;15.00;83.40
4107;DHT22;21906;50.812;7.132;2023-05-10T03:00:46;15.00;83.70
4107;DHT22;21906;50.812;7.132;2023-05-10T03:03:12;15.00;83.90
4107;DHT22;21906;50.812;7.132;2023-05-10T03:05:37;15.00;83.80
4107;DHT22;21906;50.812;7.132;2023-05-10T03:08:03;15.00;83.80
4107;DHT22;21906;50.812;7.132;2023-05-10T03:10:31;15.00;83.70
4107;DHT22;21906;50.812;7.132;2023-05-10T03:13:23;14.90;84.10
4107;DHT22;21906;50.812;7.132;2023-05-10T03:16:03;14.90;84.30
4107;DHT22;21906;50.812;7.132;2023-05-10T03:18:54;14.90;84.30
4107;DHT22;21906;50.812;7.132;2023-05-10T03:21:22;14.90;84.50
4107;DHT22;21906;50.812;7.132;2023-05-10T03:24:07;14.90;84.70
4107;DHT22;21906;50.812;7.132;2023-05-10T03:26:34;15.00;84.40
4107;DHT22;21906;50.812;7.132;2023-05-10T03:29:00;14.90;84.50
4107;DHT22;21906;50.812;7.132;2023-05-10T03:31:26;15.00;84.20
4107;DHT22;21906;50.812;7.132;2023-05-10T03:33:52;15.00;84.10
4107;DHT22;21906;50.812;7.132;2023-05-10T03:36:18;15.00;84.20
4107;DHT22;21906;50.812;7.132;2023-05-10T03:38:44;14.90;84.30
4107;DHT22;21906;50.812;7.132;2023-05-10T03:41:10;14.90;84.50
4107;DHT22;21906;50.812;7.132;2023-05-10T03:43:35;15.00;84.30
4107;DHT22;21906;50.812;7.132;2023-05-10T03:46:03;14.90;84.20
4107;DHT22;21906;50.812;7.132;2023-05-10T03:48:29;14.90;84.40
4107;DHT22;21906;50.812;7.132;2023-05-10T03:50:55;15.00;84.40
4107;DHT22;21906;50.812;7.132;2023-05-10T03:53:21;15.00;84.30
4107;DHT22;21906;50.812;7.132;2023-05-10T03:55:48;14.90;84.50
4107;DHT22;21906;50.812;7.132;2023-05-10T03:58:13;15.00;84.40
4107;DHT22;21906;50.812;7.132;2023-05-10T04:00:39;14.90;84.70
4107;DHT22;21906;50.812;7.132;2023-05-10T04:03:09;14.90;84.80
4107;DHT22;21906;50.812;7.132;2023-05-10T04:05:35;15.00;84.50
4107;DHT22;21906;50.812;7.132;2023-05-10T04:08:01;15.00;84.70
4107;DHT22;21906;50.812;7.132;2023-05-10T04:10:27;14.90;85.00
4107;DHT22;21906;50.812;7.132;2023-05-10T04:12:53;14.90;85.00
4107;DHT22;21906;50.812;7.132;2023-05-10T04:15:18;14.80;85.30
4107;DHT22;21906;50.812;7.132;2023-05-10T04:17:44;14.80;85.40
4107;DHT22;21906;50.812;7.132;2023-05-10T04:20:11;14.80;85.40
4107;DHT22;21906;50.812;7.132;2023-05-10T04:22:36;14.90;85.40
4107;DHT22;21906;50.812;7.132;2023-05-10T04:25:02;14.90;85.30
4107;DHT22;21906;50.812;7.132;2023-05-10T04:27:28;14.90;85.20
4107;DHT22;21906;50.812;7.132;2023-05-10T04:29:54;15.00;85.30
4107;DHT22;21906;50.812;7.132;2023-05-10T04:32:19;15.00;85.20
4107;DHT22;21906;50.812;7.132;2023-05-10T04:34:46;15.00;85.10
4107;DHT22;21906;50.812;7.132;2023-05-10T04:37:11;15.10;85.10
4107;DHT22;21906;50.812;7.132;2023-05-10T04:39:37;15.00;85.00
4107;DHT22;21906;50.812;7.132;2023-05-10T04:42:03;15.00;85.00
4107;DHT22;21906;50.812;7.132;2023-05-10T04:44:31;15.10;84.90
4107;DHT22;21906;50.812;7.132;2023-05-10T04:46:57;15.00;84.80
4107;DHT22;21906;50.812;7.132;2023-05-10T04:49:22;15.00;85.00
4107;DHT22;21906;50.812;7.132;2023-05-10T04:51:48;15.00;84.90
4107;DHT22;21906;50.812;7.132;2023-05-10T04:54:14;15.00;84.90
4107;DHT22;21906;50.812;7.132;2023-05-10T04:56:39;15.10;84.80
4107;DHT22;21906;50.812;7.132;2023-05-10T04:59:06;15.10;84.80
4107;DHT22;21906;50.812;7.132;2023-05-10T05:01:32;15.00;84.80
4107;DHT22;21906;50.812;7.132;2023-05-10T05:03:58;15.00;84.80
4107;DHT22;21906;50.812;7.132;2023-05-10T05:06:23;15.10;84.80
4107;DHT22;21906;50.812;7.132;2023-05-10T05:08:50;15.10;84.70
4107;DHT22;21906;50.812;7.132;2023-05-10T05:11:16;15.10;84.80
4107;DHT22;21906;50.812;7.132;2023-05-10T05:13:42;15.20;84.90
4107;DHT22;21906;50.812;7.132;2023-05-10T05:16:08;15.20;84.80
4107;DHT22;21906;50.812;7.132;2023-05-10T05:18:33;15.20;84.90
4107;DHT22;21906;50.812;7.132;2023-05-10T05:20:59;15.20;85.00
4107;DHT22;21906;50.812;7.132;2023-05-10T05:23:24;15.20;84.80
4107;DHT22;21906;50.812;7.132;2023-05-10T05:25:54;15.10;84.60
4107;DHT22;21906;50.812;7.132;2023-05-10T05:28:20;15.20;84.60
4107;DHT22;21906;50.812;7.132;2023-05-10T05:30:46;15.20;84.40
4107;DHT22;21906;50.812;7.132;2023-05-10T05:33:13;15.20;84.40
4107;DHT22;21906;50.812;7.132;2023-05-10T05:35:40;15.20;84.40
4107;DHT22;21906;50.812;7.132;2023-05-10T05:38:06;15.20;84.30
4107;DHT22;21906;50.812;7.132;2023-05-10T05:40:32;15.20;84.30
4107;DHT22;21906;50.812;7.132;2023-05-10T05:42:57;15.10;84.40
4107;DHT22;21906;50.812;7.132;2023-05-10T05:45:23;15.20;84.30
4107;DHT22;21906;50.812;7.132;2023-05-10T05:47:48;15.20;84.40
4107;DHT22;21906;50.812;7.132;2023-05-10T05:50:14;15.20;84.20
4107;DHT22;21906;50.812;7.132;2023-05-10T05:52:40;15.20;84.00
4107;DHT22;21906;50.812;7.132;2023-05-10T05:55:05;15.20;83.80
4107;DHT22;21906;50.812;7.132;2023-05-10T05:57:31;15.30;83.90
4107;DHT22;21906;50.812;7.132;2023-05-10T05:59:57;15.20;83.50
4107;DHT22;21906;50.812;7.132;2023-05-10T06:02:23;15.20;83.50
4107;DHT22;21906;50.812;7.132;2023-05-10T06:04:48;15.30;83.40
4107;DHT22;21906;50.812;7.132;2023-05-10T06:07:14;15.40;83.50
4107;DHT22;21906;50.812;7.132;2023-05-10T06:09:39;15.40;83.20
4107;DHT22;21906;50.812;7.132;2023-05-10T06:12:05;15.50;83.10
4107;DHT22;21906;50.812;7.132;2023-05-10T06:14:31;15.50;83.60
4107;DHT22;21906;50.812;7.132;2023-05-10T06:16:56;15.50;83.40
4107;DHT22;21906;50.812;7.132;2023-05-10T06:19:22;15.50;82.90
4107;DHT22;21906;50.812;7.132;2023-05-10T06:21:48;15.60;82.70
4107;DHT22;21906;50.812;7.132;2023-05-10T06:24:13;15.60;82.30
4107;DHT22;21906;50.812;7.132;2023-05-10T06:26:39;15.70;81.70
4107;DHT22;21906;50.812;7.132;2023-05-10T06:29:04;15.70;81.80
4107;DHT22;21906;50.812;7.132;2023-05-10T06:31:30;15.60;81.30
4107;DHT22;21906;50.812;7.132;2023-05-10T06:33:56;15.60;81.50
4107;DHT22;21906;50.812;7.132;2023-05-10T06:36:21;15.80;81.70
4107;DHT22;21906;50.812;7.132;2023-05-10T06:38:47;15.80;81.10
4107;DHT22;21906;50.812;7.132;2023-05-10T06:41:13;15.70;81.30
4107;DHT22;21906;50.812;7.132;2023-05-10T06:43:38;15.70;81.20
4107;DHT22;21906;50.812;7.132;2023-05-10T06:46:06;15.70;81.10
4107;DHT22;21906;50.812;7.132;2023-05-10T06:48:32;15.70;81.20
4107;DHT22;21906;50.812;7.132;2023-05-10T06:50:58;15.70;81.50
4107;DHT22;21906;50.812;7.132;2023-05-10T06:53:24;15.70;81.60
4107;DHT22;21906;50.812;7.132;2023-05-10T06:55:50;15.70;81.70
4107;DHT22;21906;50.812;7.132;2023-05-10T06:58:15;15.70;81.00
4107;DHT22;21906;50.812;7.132;2023-05-10T07:00:41;15.70;81.20
4107;DHT22;21906;50.812;7.132;2023-05-10T07:03:09;15.70;81.10
4107;DHT22;21906;50.812;7.132;2023-05-10T07:05:35;15.80;81.30
4107;DHT22;21906;50.812;7.132;2023-05-10T07:08:01;15.60;80.90
4107;DHT22;21906;50.812;7.132;2023-05-10T07:10:26;15.70;80.80
4107;DHT22;21906;50.812;7.132;2023-05-10T07:12:52;15.50;80.30
4107;DHT22;21906;50.812;7.132;2023-05-10T07:15:18;15.60;80.40
4107;DHT22;21906;50.812;7.132;2023-05-10T07:17:43;15.60;80.60
4107;DHT22;21906;50.812;7.132;2023-05-10T07:20:09;15.60;80.50
4107;DHT22;21906;50.812;7.132;2023-05-10T07:22:35;15.80;80.50
4107;DHT22;21906;50.812;7.132;2023-05-10T07:25:01;15.80;80.40
4107;DHT22;21906;50.812;7.132;2023-05-10T07:27:27;15.80;80.30
4107;DHT22;21906;50.812;7.132;2023-05-10T07:29:53;15.90;79.30
4107;DHT22;21906;50.812;7.132;2023-05-10T07:32:20;15.90;79.00
4107;DHT22;21906;50.812;7.132;2023-05-10T07:34:45;15.90;79.30
4107;DHT22;21906;50.812;7.132;2023-05-10T07:37:11;15.90;78.90
4107;DHT22;21906;50.812;7.132;2023-05-10T07:39:37;15.80;78.60
4107;DHT22;21906;50.812;7.132;2023-05-10T07:42:03;15.60;79.30
4107;DHT22;21906;50.812;7.132;2023-05-10T07:44:28;15.60;79.50
4107;DHT22;21906;50.812;7.132;2023-05-10T07:46:54;15.60;80.10
4107;DHT22;21906;50.812;7.132;2023-05-10T07:49:20;15.60;81.00
4107;DHT22;21906;50.812;7.132;2023-05-10T07:51:46;15.50;81.40
4107;DHT22;21906;50.812;7.132;2023-05-10T07:54:12;15.40;81.80
4107;DHT22;21906;50.812;7.132;2023-05-10T07:56:38;15.40;82.40
4107;DHT22;21906;50.812;7.132;2023-05-10T07:59:05;15.40;82.60
4107;DHT22;21906;50.812;7.132;2023-05-10T08:01:33;15.40;82.60
4107;DHT22;21906;50.812;7.132;2023-05-10T08:03:59;15.40;82.70
4107;DHT22;21906;50.812;7.132;2023-05-10T08:06:25;15.40;82.80
4107;DHT22;21906;50.812;7.132;2023-05-10T08:08:53;15.50;83.00
4107;DHT22;21906;50.812;7.132;2023-05-10T08:11:20;15.60;83.10
4107;DHT22;21906;50.812;7.132;2023-05-10T08:13:46;15.60;82.80
4107;DHT22;21906;50.812;7.132;2023-05-10T08:16:12;15.70;82.70
4107;DHT22;21906;50.812;7.132;2023-05-10T08:18:38;15.80;82.50
4107;DHT22;21906;50.812;7.132;2023-05-10T08:21:05;15.90;82.50
4107;DHT22;21906;50.812;7.132;2023-05-10T08:23:30;16.10;81.30
4107;DHT22;21906;50.812;7.132;2023-05-10T08:25:56;16.20;80.20
4107;DHT22;21906;50.812;7.132;2023-05-10T08:28:22;16.30;80.40
4107;DHT22;21906;50.812;7.132;2023-05-10T08:30:47;16.40;80.70
4107;DHT22;21906;50.812;7.132;2023-05-10T08:33:13;16.60;79.60
4107;DHT22;21906;50.812;7.132;2023-05-10T08:35:39;16.70;77.70
4107;DHT22;21906;50.812;7.132;2023-05-10T08:38:04;16.70;78.10
4107;DHT22;21906;50.812;7.132;2023-05-10T08:40:30;16.70;78.00
4107;DHT22;21906;50.812;7.132;2023-05-10T08:43:04;16.90;78.20
4107;DHT22;21906;50.812;7.132;2023-05-10T08:45:33;17.00;78.40
4107;DHT22;21906;50.812;7.132;2023-05-10T08:48:05;17.10;77.90
4107;DHT22;21906;50.812;7.132;2023-05-10T08:50:33;17.30;78.10
4107;DHT22;21906;50.812;7.132;2023-05-10T08:53:00;17.40;77.10
4107;DHT22;21906;50.812;7.132;2023-05-10T08:55:29;17.60;77.00
4107;DHT22;21906;50.812;7.132;2023-05-10T08:57:55;17.70;77.90
4107;DHT22;21906;50.812;7.132;2023-05-10T09:00:21;17.80;78.70
4107;DHT22;21906;50.812;7.132;2023-05-10T09:02:49;17.90;75.50
4107;DHT22;21906;50.812;7.132;2023-05-10T09:05:15;17.80;74.50
4107;DHT22;21906;50.812;7.132;2023-05-10T09:07:41;17.60;75.40
4107;DHT22;21906;50.812;7.132;2023-05-10T09:10:08;17.60;76.20
4107;DHT22;21906;50.812;7.132;2023-05-10T09:12:34;17.40;73.40
4107;DHT22;21906;50.812;7.132;2023-05-10T09:15:01;17.30;74.50
4107;DHT22;21906;50.812;7.132;2023-05-10T09:17:28;17.30;75.60
4107;DHT22;21906;50.812;7.132;2023-05-10T09:20:04;17.20;76.40
4107;DHT22;21906;50.812;7.132;2023-05-10T09:22:31;17.30;74.70
4107;DHT22;21906;50.812;7.132;2023-05-10T09:25:10;17.30;74.30
4107;DHT22;21906;50.812;7.132;2023-05-10T09:27:41;17.30;74.40
4107;DHT22;21906;50.812;7.132;2023-05-10T09:30:07;17.30;74.40
4107;DHT22;21906;50.812;7.132;2023-05-10T09:32:41;17.30;74.50
4107;DHT22;21906;50.812;7.132;2023-05-10T09:35:11;17.20;74.40
4107;DHT22;21906;50.812;7.132;2023-05-10T09:37:38;17.20;74.40
4107;DHT22;21906;50.812;7.132;2023-05-10T09:40:15;16.90;75.70
4107;DHT22;21906;50.812;7.132;2023-05-10T09:42:43;16.90;76.70
4107;DHT22;21906;50.812;7.132;2023-05-10T09:45:15;16.70;76.40
4107;DHT22;21906;50.812;7.132;2023-05-10T09:47:42;16.70;77.00
4107;DHT22;21906;50.812;7.132;2023-05-10T09:50:09;16.60;77.00
4107;DHT22;21906;50.812;7.132;2023-05-10T09:52:55;16.60;78.10
4107;DHT22;21906;50.812;7.132;2023-05-10T09:55:23;16.50;78.20
4107;DHT22;21906;50.812;7.132;2023-05-10T09:57:50;16.50;79.30
4107;DHT22;21906;50.812;7.132;2023-05-10T10:00:23;16.60;79.20
4107;DHT22;21906;50.812;7.132;2023-05-10T10:02:56;16.60;79.00
4107;DHT22;21906;50.812;7.132;2023-05-10T10:05:32;16.60;78.80
4107;DHT22;21906;50.812;7.132;2023-05-10T10:07:59;16.60;79.40
4107;DHT22;21906;50.812;7.132;2023-05-10T10:10:26;16.60;79.80
4107;DHT22;21906;50.812;7.132;2023-05-10T10:12:53;16.50;80.10
4107;DHT22;21906;50.812;7.132;2023-05-10T10:15:22;16.50;80.00
4107;DHT22;21906;50.812;7.132;2023-05-10T10:17:49;16.50;79.70
4107;DHT22;21906;50.812;7.132;2023-05-10T10:20:16;16.60;78.10
4107;DHT22;21906;50.812;7.132;2023-05-10T10:22:42;16.60;78.40
4107;DHT22;21906;50.812;7.132;2023-05-10T10:25:10;16.60;78.20
4107;DHT22;21906;50.812;7.132;2023-05-10T10:30:35;16.90;76.70
4107;DHT22;21906;50.812;7.132;2023-05-10T10:35:58;17.40;74.70
4107;DHT22;21906;50.812;7.132;2023-05-10T10:38:25;17.60;75.40
4107;DHT22;21906;50.812;7.132;2023-05-10T10:41:10;17.70;73.50
4107;DHT22;21906;50.812;7.132;2023-05-10T10:43:36;17.70;74.80
4107;DHT22;21906;50.812;7.132;2023-05-10T10:46:17;17.90;72.30
4107;DHT22;21906;50.812;7.132;2023-05-10T10:51:32;17.90;70.60
4107;DHT22;21906;50.812;7.132;2023-05-10T10:54:09;17.70;71.80
4107;DHT22;21906;50.812;7.132;2023-05-10T10:56:35;17.60;72.20
4107;DHT22;21906;50.812;7.132;2023-05-10T10:59:01;17.70;71.30
4107;DHT22;21906;50.812;7.132;2023-05-10T11:01:32;17.60;71.70
4107;DHT22;21906;50.812;7.132;2023-05-10T11:06:31;17.60;73.30
4107;DHT22;21906;50.812;7.132;2023-05-10T11:08:58;17.70;71.50
4107;DHT22;21906;50.812;7.132;2023-05-10T11:11:24;17.90;70.80
4107;DHT22;21906;50.812;7.132;2023-05-10T11:13:50;17.90;71.80
4107;DHT22;21906;50.812;7.132;2023-05-10T11:16:18;18.10;72.30
4107;DHT22;21906;50.812;7.132;2023-05-10T11:19:04;18.30;68.00
4107;DHT22;21906;50.812;7.132;2023-05-10T11:21:31;18.30;68.20
4107;DHT22;21906;50.812;7.132;2023-05-10T11:23:59;18.20;67.10
4107;DHT22;21906;50.812;7.132;2023-05-10T11:26:29;18.20;68.00
4107;DHT22;21906;50.812;7.132;2023-05-10T11:28:55;18.10;68.10
4107;DHT22;21906;50.812;7.132;2023-05-10T11:31:22;18.10;68.60
4107;DHT22;21906;50.812;7.132;2023-05-10T11:33:53;18.30;68.10
4107;DHT22;21906;50.812;7.132;2023-05-10T11:36:33;18.20;69.50
4107;DHT22;21906;50.812;7.132;2023-05-10T11:38:59;18.50;68.50
4107;DHT22;21906;50.812;7.132;2023-05-10T11:41:27;18.70;69.10
4107;DHT22;21906;50.812;7.132;2023-05-10T11:43:54;18.70;67.40
4107;DHT22;21906;50.812;7.132;2023-05-10T11:46:22;19.00;66.90
4107;DHT22;21906;50.812;7.132;2023-05-10T11:48:52;19.10;65.40
4107;DHT22;21906;50.812;7.132;2023-05-10T11:51:23;19.40;66.70
4107;DHT22;21906;50.812;7.132;2023-05-10T11:53:53;19.80;61.80
4107;DHT22;21906;50.812;7.132;2023-05-10T11:56:19;19.80;62.90
4107;DHT22;21906;50.812;7.132;2023-05-10T11:58:53;19.80;59.20
4107;DHT22;21906;50.812;7.132;2023-05-10T12:01:21;20.00;59.10
4107;DHT22;21906;50.812;7.132;2023-05-10T12:03:47;20.00;60.80
4107;DHT22;21906;50.812;7.132;2023-05-10T12:06:13;19.90;60.90
4107;DHT22;21906;50.812;7.132;2023-05-10T12:08:44;19.70;62.50
4107;DHT22;21906;50.812;7.132;2023-05-10T12:11:12;19.80;61.20
4107;DHT22;21906;50.812;7.132;2023-05-10T12:13:41;19.60;61.20
4107;DHT22;21906;50.812;7.132;2023-05-10T12:16:28;19.70;61.80
4107;DHT22;21906;50.812;7.132;2023-05-10T12:18:57;19.60;61.50
4107;DHT22;21906;50.812;7.132;2023-05-10T12:21:22;19.60;61.70
4107;DHT22;21906;50.812;7.132;2023-05-10T12:23:50;19.50;61.40
4107;DHT22;21906;50.812;7.132;2023-05-10T12:26:16;19.50;62.90
4107;DHT22;21906;50.812;7.132;2023-05-10T12:28:42;19.70;61.90
4107;DHT22;21906;50.812;7.132;2023-05-10T12:31:08;19.70;63.20
4107;DHT22;21906;50.812;7.132;2023-05-10T12:33:42;19.80;62.90
4107;DHT22;21906;50.812;7.132;2023-05-10T12:36:13;19.80;62.40
4107;DHT22;21906;50.812;7.132;2023-05-10T12:38:40;19.90;61.90
4107;DHT22;21906;50.812;7.132;2023-05-10T12:41:14;20.10;61.60
4107;DHT22;21906;50.812;7.132;2023-05-10T12:43:40;20.20;58.70
4107;DHT22;21906;50.812;7.132;2023-05-10T12:48:32;20.20;58.70
4107;DHT22;21906;50.812;7.132;2023-05-10T12:50:59;20.30;59.60
4107;DHT22;21906;50.812;7.132;2023-05-10T12:53:25;20.30;60.00
4107;DHT22;21906;50.812;7.132;2023-05-10T12:55:51;20.20;60.10
4107;DHT22;21906;50.812;7.132;2023-05-10T12:58:16;20.20;59.60
4107;DHT22;21906;50.812;7.132;2023-05-10T13:00:42;19.80;59.70
4107;DHT22;21906;50.812;7.132;2023-05-10T13:03:09;19.50;60.80
4107;DHT22;21906;50.812;7.132;2023-05-10T13:05:35;19.40;61.60
4107;DHT22;21906;50.812;7.132;2023-05-10T13:08:02;19.50;61.70
4107;DHT22;21906;50.812;7.132;2023-05-10T13:10:30;19.60;62.20
4107;DHT22;21906;50.812;7.132;2023-05-10T13:12:56;19.60;62.00
4107;DHT22;21906;50.812;7.132;2023-05-10T13:15:22;19.70;60.60
4107;DHT22;21906;50.812;7.132;2023-05-10T13:17:48;19.60;58.40
4107;DHT22;21906;50.812;7.132;2023-05-10T13:20:14;19.60;57.50
4107;DHT22;21906;50.812;7.132;2023-05-10T13:22:40;19.50;59.30
4107;DHT22;21906;50.812;7.132;2023-05-10T13:25:06;19.30;59.70
4107;DHT22;21906;50.812;7.132;2023-05-10T13:27:32;19.10;59.30
4107;DHT22;21906;50.812;7.132;2023-05-10T13:29:57;18.90;62.10
4107;DHT22;21906;50.812;7.132;2023-05-10T13:32:25;18.90;61.90
4107;DHT22;21906;50.812;7.132;2023-05-10T13:34:51;18.90;60.60
4107;DHT22;21906;50.812;7.132;2023-05-10T13:37:16;18.80;61.60
4107;DHT22;21906;50.812;7.132;2023-05-10T13:39:42;18.70;61.60
4107;DHT22;21906;50.812;7.132;2023-05-10T13:42:08;18.70;62.00
4107;DHT22;21906;50.812;7.132;2023-05-10T13:44:33;18.50;60.80
4107;DHT22;21906;50.812;7.132;2023-05-10T13:46:59;18.50;61.20
4107;DHT22;21906;50.812;7.132;2023-05-10T13:49:25;18.60;61.20
4107;DHT22;21906;50.812;7.132;2023-05-10T13:51:51;18.60;61.10
4107;DHT22;21906;50.812;7.132;2023-05-10T13:54:17;18.40;62.30
4107;DHT22;21906;50.812;7.132;2023-05-10T13:56:45;18.40;61.60
4107;DHT22;21906;50.812;7.132;2023-05-10T13:59:12;18.40;62.00
4107;DHT22;21906;50.812;7.132;2023-05-10T14:01:39;18.20;61.00
4107;DHT22;21906;50.812;7.132;2023-05-10T14:04:05;18.10;61.70
4107;DHT22;21906;50.812;7.132;2023-05-10T14:06:31;18.00;63.00
4107;DHT22;21906;50.812;7.132;2023-05-10T14:08:57;17.90;63.50
4107;DHT22;21906;50.812;7.132;2023-05-10T14:11:22;18.00;64.00
4107;DHT22;21906;50.812;7.132;2023-05-10T14:13:48;18.00;64.60
4107;DHT22;21906;50.812;7.132;2023-05-10T14:16:14;18.00;63.80
4107;DHT22;21906;50.812;7.132;2023-05-10T14:18:40;18.00;63.40
4107;DHT22;21906;50.812;7.132;2023-05-10T14:21:05;18.10;63.90
4107;DHT22;21906;50.812;7.132;2023-05-10T14:23:31;18.10;64.30
4107;DHT22;21906;50.812;7.132;2023-05-10T14:25:57;18.10;62.50
4107;DHT22;21906;50.812;7.132;2023-05-10T14:28:23;18.10;62.40
4107;DHT22;21906;50.812;7.132;2023-05-10T14:30:50;18.10;62.10
4107;DHT22;21906;50.812;7.132;2023-05-10T14:33:16;18.10;61.50
4107;DHT22;21906;50.812;7.132;2023-05-10T14:35:42;18.10;63.10
4107;DHT22;21906;50.812;7.132;2023-05-10T14:38:08;17.90;63.10
4107;DHT22;21906;50.812;7.132;2023-05-10T14:40:34;17.90;63.20
4107;DHT22;21906;50.812;7.132;2023-05-10T14:43:00;17.90;63.50
4107;DHT22;21906;50.812;7.132;2023-05-10T14:45:25;17.90;63.60
4107;DHT22;21906;50.812;7.132;2023-05-10T14:47:51;17.90;64.20
4107;DHT22;21906;50.812;7.132;2023-05-10T14:50:17;17.90;64.60
4107;DHT22;21906;50.812;7.132;2023-05-10T14:52:44;17.90;64.40
4107;DHT22;21906;50.812;7.132;2023-05-10T14:55:09;18.00;64.70
4107;DHT22;21906;50.812;7.132;2023-05-10T14:57:35;18.00;65.10
4107;DHT22;21906;50.812;7.132;2023-05-10T15:00:02;18.10;65.90
4107;DHT22;21906;50.812;7.132;2023-05-10T15:02:28;18.00;64.90
4107;DHT22;21906;50.812;7.132;2023-05-10T15:04:53;18.20;65.10
4107;DHT22;21906;50.812;7.132;2023-05-10T15:07:19;18.50;65.80
4107;DHT22;21906;50.812;7.132;2023-05-10T15:09:45;19.30;63.60
4107;DHT22;21906;50.812;7.132;2023-05-10T15:12:11;20.00;64.60
4107;DHT22;21906;50.812;7.132;2023-05-10T15:14:36;21.10;65.00
4107;DHT22;21906;50.812;7.132;2023-05-10T15:17:02;22.40;62.70
4107;DHT22;21906;50.812;7.132;2023-05-10T15:19:28;23.70;60.30
4107;DHT22;21906;50.812;7.132;2023-05-10T15:21:55;24.70;56.70
4107;DHT22;21906;50.812;7.132;2023-05-10T15:24:21;24.90;55.50
4107;DHT22;21906;50.812;7.132;2023-05-10T15:26:47;24.40;55.00
4107;DHT22;21906;50.812;7.132;2023-05-10T15:29:12;23.90;55.50
4107;DHT22;21906;50.812;7.132;2023-05-10T15:31:45;23.30;56.20
4107;DHT22;21906;50.812;7.132;2023-05-10T15:34:11;22.80;55.40
4107;DHT22;21906;50.812;7.132;2023-05-10T15:36:37;22.20;56.70
4107;DHT22;21906;50.812;7.132;2023-05-10T15:39:02;21.70;58.90
4107;DHT22;21906;50.812;7.132;2023-05-10T15:41:28;21.30;61.10
4107;DHT22;21906;50.812;7.132;2023-05-10T15:43:54;20.90;62.10
4107;DHT22;21906;50.812;7.132;2023-05-10T15:46:20;20.60;62.80
4107;DHT22;21906;50.812;7.132;2023-05-10T15:48:46;20.40;62.70
4107;DHT22;21906;50.812;7.132;2023-05-10T15:51:12;20.20;63.20
4107;DHT22;21906;50.812;7.132;2023-05-10T15:53:38;19.90;64.00
4107;DHT22;21906;50.812;7.132;2023-05-10T15:56:04;19.70;65.20
4107;DHT22;21906;50.812;7.132;2023-05-10T15:58:30;19.40;66.00
4107;DHT22;21906;50.812;7.132;2023-05-10T16:00:56;19.20;67.10
4107;DHT22;21906;50.812;7.132;2023-05-10T16:03:22;18.90;68.20
4107;DHT22;21906;50.812;7.132;2023-05-10T16:05:48;18.70;68.90
4107;DHT22;21906;50.812;7.132;2023-05-10T16:08:13;18.40;69.10
4107;DHT22;21906;50.812;7.132;2023-05-10T16:10:39;18.40;69.60
4107;DHT22;21906;50.812;7.132;2023-05-10T16:13:05;18.30;69.40
4107;DHT22;21906;50.812;7.132;2023-05-10T16:15:31;18.20;69.30
4107;DHT22;21906;50.812;7.132;2023-05-10T16:17:57;18.10;69.20